Savoonga Airport

About
Name: Savoonga Airport
Identifier:  SVA/PASA
Serves:  Savoonga, Alaska
Owner:  Alaska DOT&PF - Northern Region
Public/Private:  Public
Local Time:  22. Sep 18:55 AKDT
Description: Savoonga Airport is a state-owned public-use airport located two nautical miles south of the central business district of Savoonga, a city in the Nome Census Area of the U.S. state of Alaska. Savoonga is located on St. Lawrence Island in the Bering Sea.
Source: Wikipedia
Location
Runways
Identifier Length (m/ft) Surface
5/23 1,341/4,400 Gravel
Statistics
Flights per Day:
3 flights
Distance: 223km (139mi)
Flights delayed:
85% (0 flights per day delayed)
Delay Average: 29 minutes
Current Weather
 5 C (Humidity: 65%)
  8kt (14km/h / 9mph) from 340°
  Scattered clouds at 2,400 feet (731 meter)
  16km (10 mi.)
 METAR PASA 230229Z AUTO 34008KT 10SM SCT024 05/M01 A2950 RMK AO2

Current Flights

Arrivals
Number Arrival From Airline
On time 8E850 11:20  Nome Bering Air
On time 8E854 13:00  Nome Bering Air

Current Delays

Departures
N/A
Arrivals
N/A

Destinations

Top Destinations
Airport Flights
per week
Seats
per week
  Nome (OME) 6 - 0 0

Airlines & Planes

Top Airlines
Airline Flights
per Day
Seats
per Day
Bering Air 0 -
Top Plane Types
Model Flights Seats
Beech 1900D 0.8/day - 0
Beech B200 Super King Air 0.1/day - 0